Time;durP1;ratioP1;P1;durP2;ratioP2;P2;SDS_P1;SDS_P2;PMS_P1;PMS_P2;Temp;Humidity;BMP_temperature;BMP_pressure;BME280_temperature;BME280_humidity;BME280_pressure;Samples;Min_cycle;Max_cycle;Signal;HPM_P1;HPM_P2
2023/08/12 00:00:11;;;;;;;2.88;1.65;;;18.80;90.20;;;;;;6183655;23;20027;-81
2023/08/12 00:02:39;;;;;;;2.97;1.60;;;18.90;90.20;;;;;;6185113;23;20068;-81
2023/08/12 00:05:05;;;;;;;4.43;1.90;;;18.80;90.20;;;;;;6182789;23;20005;-82
2023/08/12 00:07:32;;;;;;;2.90;1.60;;;18.80;90.20;;;;;;6190290;23;20077;-83
2023/08/12 00:09:58;;;;;;;3.30;1.70;;;18.80;90.20;;;;;;6191905;23;20498;-83
2023/08/12 00:12:23;;;;;;;3.15;1.80;;;18.80;90.20;;;;;;6192526;23;20005;-83
2023/08/12 00:14:49;;;;;;;3.70;1.83;;;18.80;90.20;;;;;;6190567;23;20015;-83
2023/08/12 00:17:14;;;;;;;2.75;1.52;;;18.80;90.30;;;;;;6191030;23;20012;-82
2023/08/12 00:19:40;;;;;;;3.28;1.80;;;18.80;90.20;;;;;;6192063;23;20336;-82
2023/08/12 00:22:05;;;;;;;3.72;1.90;;;18.80;90.30;;;;;;6190851;23;20005;-83
2023/08/12 00:24:31;;;;;;;3.00;1.80;;;18.80;90.30;;;;;;6191707;23;20012;-83
2023/08/12 00:26:56;;;;;;;3.25;1.70;;;18.80;90.30;;;;;;6189415;23;20004;-82
2023/08/12 00:29:22;;;;;;;3.45;2.00;;;18.80;90.30;;;;;;6191187;23;20070;-83
2023/08/12 00:31:47;;;;;;;3.35;1.65;;;18.80;90.30;;;;;;6192635;23;20001;-83
2023/08/12 00:34:14;;;;;;;3.55;1.88;;;18.80;90.30;;;;;;6191357;23;19997;-83
2023/08/12 00:36:40;;;;;;;3.25;1.80;;;18.80;90.30;;;;;;6192136;23;20439;-83
2023/08/12 00:39:06;;;;;;;3.70;2.00;;;18.80;90.30;;;;;;6191268;23;20020;-83
2023/08/12 00:41:31;;;;;;;3.20;1.70;;;18.80;90.40;;;;;;6192729;23;20028;-82
2023/08/12 00:43:57;;;;;;;3.25;1.80;;;18.80;90.30;;;;;;6190114;23;20383;-82
2023/08/12 00:46:24;;;;;;;3.53;2.13;;;18.80;90.40;;;;;;6191294;23;20340;-82
2023/08/12 00:48:49;;;;;;;2.72;1.80;;;18.90;90.30;;;;;;6189641;23;20019;-82
2023/08/12 00:51:16;;;;;;;3.42;2.00;;;18.90;90.30;;;;;;6190024;23;20013;-82
2023/08/12 00:53:42;;;;;;;3.72;1.85;;;18.90;90.20;;;;;;6188890;23;20013;-83
2023/08/12 00:56:09;;;;;;;2.80;1.73;;;18.90;90.20;;;;;;6189320;23;20013;-82
2023/08/12 00:58:35;;;;;;;2.72;1.70;;;18.90;90.10;;;;;;6189974;23;20000;-82
2023/08/12 01:01:01;;;;;;;2.90;1.80;;;19.00;90.10;;;;;;6189139;23;20063;-81
2023/08/12 01:03:26;;;;;;;3.50;2.00;;;19.00;90.10;;;;;;6190217;23;20103;-81
2023/08/12 01:05:52;;;;;;;3.85;2.05;;;18.90;90.00;;;;;;6188320;23;20010;-82
2023/08/12 01:08:17;;;;;;;3.83;1.90;;;18.90;90.00;;;;;;6213203;23;20072;-82
2023/08/12 01:10:52;;;;;;;4.50;2.00;;;18.90;90.00;;;;;;6187350;23;20024;-82
2023/08/12 01:13:27;;;;;;;3.25;1.77;;;19.00;90.00;;;;;;6212933;23;20005;-81
2023/08/12 01:15:55;;;;;;;3.97;1.70;;;19.00;90.00;;;;;;6187454;23;20005;-81
2023/08/12 01:18:22;;;;;;;3.35;1.75;;;18.90;90.10;;;;;;6189686;23;20033;-83
2023/08/12 01:20:48;;;;;;;4.63;2.15;;;18.90;90.10;;;;;;6187925;23;20348;-82
2023/08/12 01:23:14;;;;;;;3.47;1.85;;;18.90;90.20;;;;;;6212283;23;20463;-82
2023/08/12 01:25:41;;;;;;;3.63;1.80;;;18.90;90.20;;;;;;6187002;23;20005;-81
2023/08/12 01:28:07;;;;;;;3.28;1.77;;;18.90;90.30;;;;;;6190593;23;20052;-82
2023/08/12 01:30:46;;;;;;;3.22;1.80;;;18.90;90.30;;;;;;6189461;23;20009;-81
2023/08/12 01:33:17;;;;;;;3.30;2.05;;;18.80;90.30;;;;;;6189018;23;20027;-82
2023/08/12 01:35:49;;;;;;;3.47;1.92;;;18.80;90.30;;;;;;6188011;23;20092;-81
2023/08/12 01:38:16;;;;;;;3.22;1.70;;;18.80;90.30;;;;;;6189065;23;20078;-81
2023/08/12 01:40:43;;;;;;;3.88;1.90;;;18.80;90.40;;;;;;6212455;23;20387;-81
2023/08/12 01:43:08;;;;;;;3.55;1.88;;;18.80;90.40;;;;;;6188985;23;20491;-81
2023/08/12 01:45:34;;;;;;;4.57;2.00;;;18.80;90.40;;;;;;6186799;23;20032;-82
2023/08/12 01:48:00;;;;;;;4.07;2.08;;;18.80;90.40;;;;;;6186860;23;20017;-81
2023/08/12 01:50:26;;;;;;;5.55;2.20;;;18.80;90.40;;;;;;6186706;23;20088;-81
2023/08/12 01:52:51;;;;;;;5.40;2.10;;;18.80;90.40;;;;;;6186670;23;19997;-82
2023/08/12 01:55:17;;;;;;;3.75;2.00;;;18.80;90.40;;;;;;6187577;23;20336;-81
2023/08/12 01:57:43;;;;;;;3.80;1.92;;;18.80;90.50;;;;;;6186389;23;20005;-81
2023/08/12 02:00:08;;;;;;;4.28;2.20;;;18.80;90.40;;;;;;6188149;23;20068;-81
2023/08/12 02:02:34;;;;;;;4.35;2.20;;;18.80;90.40;;;;;;6186602;23;20011;-81
2023/08/12 02:05:00;;;;;;;4.47;1.88;;;18.80;90.50;;;;;;6185800;23;20400;-81
2023/08/12 02:07:25;;;;;;;3.40;1.75;;;18.80;90.40;;;;;;6187365;23;20452;-81
2023/08/12 02:09:51;;;;;;;3.22;1.83;;;18.80;90.40;;;;;;6186052;23;20083;-82
2023/08/12 02:12:16;;;;;;;3.80;1.90;;;18.80;90.40;;;;;;6185600;23;20005;-81
2023/08/12 02:14:42;;;;;;;3.28;1.90;;;18.80;90.40;;;;;;6187259;23;20060;-81
2023/08/12 02:17:07;;;;;;;5.20;2.00;;;18.80;90.40;;;;;;6185473;23;20009;-81
2023/08/12 02:19:33;;;;;;;3.63;2.10;;;18.80;90.70;;;;;;6187920;23;20062;-81
2023/08/12 02:22:03;;;;;;;4.57;2.25;;;18.90;90.50;;;;;;6183110;23;20008;-81
2023/08/12 02:24:28;;;;;;;4.05;2.30;;;18.90;90.50;;;;;;6185028;23;20005;-83
2023/08/12 02:26:54;;;;;;;3.17;1.90;;;18.90;90.40;;;;;;6184762;23;20012;-81
2023/08/12 02:29:19;;;;;;;3.92;1.92;;;18.90;90.30;;;;;;6184835;23;20009;-81
2023/08/12 02:31:45;;;;;;;3.67;2.08;;;18.90;90.30;;;;;;6184925;23;20455;-82
2023/08/12 02:34:10;;;;;;;3.90;2.10;;;18.90;90.20;;;;;;6186124;23;19993;-79
2023/08/12 02:36:36;;;;;;;3.70;2.15;;;18.90;90.20;;;;;;6186868;23;20067;-81
2023/08/12 02:39:04;;;;;;;4.13;2.22;;;18.90;90.20;;;;;;6185663;23;20001;-80
2023/08/12 02:41:29;;;;;;;3.72;2.20;;;18.90;90.20;;;;;;6183786;23;19997;-81
2023/08/12 02:43:55;;;;;;;3.85;2.08;;;18.90;90.20;;;;;;6184664;23;20005;-81
2023/08/12 02:46:21;;;;;;;4.60;2.28;;;18.90;90.20;;;;;;6186652;23;20011;-81
2023/08/12 02:48:49;;;;;;;4.28;2.50;;;18.90;90.20;;;;;;6184994;23;20024;-80
2023/08/12 02:51:14;;;;;;;3.65;2.08;;;18.90;90.20;;;;;;6184856;23;20012;-81
2023/08/12 02:53:40;;;;;;;3.88;2.25;;;18.90;90.20;;;;;;6184184;23;20004;-81
2023/08/12 02:56:05;;;;;;;5.00;2.55;;;18.90;90.40;;;;;;6184315;23;20016;-81
2023/08/12 02:58:31;;;;;;;3.50;2.03;;;18.90;90.30;;;;;;6185809;23;20001;-81
2023/08/12 03:00:56;;;;;;;4.45;2.25;;;18.90;90.40;;;;;;6185999;23;20002;-81
2023/08/12 03:03:22;;;;;;;3.25;2.00;;;18.90;90.50;;;;;;6184431;23;20027;-80
2023/08/12 03:05:48;;;;;;;4.07;2.10;;;18.90;90.50;;;;;;6183950;23;20005;-80
2023/08/12 03:08:14;;;;;;;3.83;2.13;;;18.90;90.50;;;;;;6185882;23;20005;-81
2023/08/12 03:10:40;;;;;;;3.40;2.10;;;18.80;90.50;;;;;;6184131;23;20005;-81
2023/08/12 03:13:06;;;;;;;4.55;2.03;;;18.80;90.50;;;;;;6209254;23;20012;-81
2023/08/12 03:15:31;;;;;;;3.45;2.00;;;18.80;90.50;;;;;;6185366;23;20474;-80
2023/08/12 03:17:57;;;;;;;4.13;2.15;;;18.80;90.50;;;;;;6184033;23;20009;-81
2023/08/12 03:20:22;;;;;;;4.13;2.00;;;18.80;90.60;;;;;;6183995;23;20005;-81
2023/08/12 03:22:48;;;;;;;3.03;2.10;;;18.80;90.60;;;;;;6183846;23;20001;-81
2023/08/12 03:25:15;;;;;;;4.45;2.35;;;18.80;90.70;;;;;;6183846;23;20001;-81
2023/08/12 03:27:41;;;;;;;3.80;2.20;;;18.80;90.60;;;;;;6185584;23;20048;-81
2023/08/12 03:30:07;;;;;;;3.63;2.20;;;18.80;90.60;;;;;;6183973;23;20088;-81
2023/08/12 03:32:33;;;;;;;3.72;2.15;;;18.80;90.60;;;;;;6209259;23;20056;-82
2023/08/12 03:34:59;;;;;;;4.32;2.50;;;18.80;90.60;;;;;;6191628;23;20072;-82
2023/08/12 03:37:25;;;;;;;4.15;2.20;;;18.80;90.60;;;;;;6190313;23;20027;-82
2023/08/12 03:39:50;;;;;;;4.70;2.25;;;18.80;90.60;;;;;;6191972;23;20001;-82
2023/08/12 03:42:16;;;;;;;4.20;2.30;;;18.80;90.60;;;;;;6191493;23;20008;-82
2023/08/12 03:44:43;;;;;;;4.65;2.50;;;18.80;90.60;;;;;;6190946;23;19997;-82
2023/08/12 03:47:08;;;;;;;4.78;2.42;;;18.80;90.70;;;;;;6189209;23;20020;-82
2023/08/12 03:49:34;;;;;;;3.78;2.10;;;18.80;90.70;;;;;;6190506;23;19997;-83
2023/08/12 03:51:59;;;;;;;4.57;2.45;;;18.80;90.60;;;;;;6189724;23;20008;-82
2023/08/12 03:54:25;;;;;;;4.10;2.45;;;18.80;90.60;;;;;;6188334;23;20059;-82
2023/08/12 03:56:50;;;;;;;4.47;2.40;;;18.80;90.50;;;;;;6190116;23;20005;-82
2023/08/12 03:59:16;;;;;;;3.97;2.25;;;18.90;90.50;;;;;;6189695;23;20005;-82
2023/08/12 04:01:41;;;;;;;3.97;2.17;;;18.90;90.50;;;;;;6189808;23;20001;-82
2023/08/12 04:04:07;;;;;;;3.40;2.10;;;18.90;90.40;;;;;;6189026;23;20005;-83
2023/08/12 04:06:32;;;;;;;4.10;2.20;;;18.90;90.40;;;;;;6189488;23;20383;-82
2023/08/12 04:08:58;;;;;;;4.32;2.22;;;18.90;90.40;;;;;;6188937;23;20012;-83
2023/08/12 04:11:23;;;;;;;3.90;2.20;;;19.00;90.40;;;;;;6189090;23;20044;-82
2023/08/12 04:13:49;;;;;;;3.95;2.33;;;19.00;90.40;;;;;;6190665;23;20005;-82
2023/08/12 04:16:14;;;;;;;5.28;2.45;;;18.90;90.40;;;;;;6188424;23;20389;-82
2023/08/12 04:18:40;;;;;;;3.95;2.25;;;19.00;90.40;;;;;;6189753;23;20455;-82
2023/08/12 04:21:05;;;;;;;4.68;2.67;;;19.00;90.40;;;;;;6187676;23;20024;-81
2023/08/12 04:23:31;;;;;;;4.85;2.25;;;18.90;90.30;;;;;;6187375;23;20052;-80
2023/08/12 04:25:56;;;;;;;4.43;2.53;;;19.00;90.40;;;;;;6189319;23;19997;-82
2023/08/12 04:28:22;;;;;;;5.38;2.50;;;18.90;90.40;;;;;;6187853;23;20001;-82
2023/08/12 04:30:50;;;;;;;3.67;2.15;;;18.90;90.40;;;;;;6187844;23;20009;-82
2023/08/12 04:33:16;;;;;;;4.55;2.25;;;18.90;90.50;;;;;;6188100;23;20024;-81
2023/08/12 04:35:42;;;;;;;5.00;2.50;;;18.90;90.50;;;;;;6188357;23;20376;-81
2023/08/12 04:38:07;;;;;;;4.40;2.40;;;18.90;90.60;;;;;;6186968;23;20088;-82
2023/08/12 04:40:33;;;;;;;4.35;2.45;;;18.90;90.60;;;;;;6188770;23;19997;-82
2023/08/12 04:42:59;;;;;;;3.95;2.20;;;18.90;90.60;;;;;;6188496;23;20071;-81
2023/08/12 04:45:25;;;;;;;4.50;2.45;;;18.90;90.70;;;;;;6186173;23;20352;-81
2023/08/12 04:47:51;;;;;;;4.93;2.50;;;18.80;90.70;;;;;;6187744;23;20016;-81
2023/08/12 04:50:16;;;;;;;4.40;2.30;;;18.80;90.70;;;;;;6185932;23;20372;-81
2023/08/12 04:52:42;;;;;;;4.50;2.17;;;18.90;90.80;;;;;;6186270;23;20005;-81
2023/08/12 04:55:08;;;;;;;4.32;2.42;;;18.80;90.70;;;;;;6185782;23;20005;-81
2023/08/12 04:57:33;;;;;;;3.67;2.25;;;18.80;90.70;;;;;;6187828;23;20077;-82
2023/08/12 04:59:59;;;;;;;4.47;2.53;;;18.80;90.70;;;;;;6187984;23;20084;-81
2023/08/12 05:02:24;;;;;;;4.28;2.45;;;18.80;90.70;;;;;;6187523;23;20075;-81
2023/08/12 05:04:51;;;;;;;4.30;2.35;;;18.80;90.70;;;;;;6187289;23;20005;-82
2023/08/12 05:07:16;;;;;;;5.18;2.60;;;18.80;90.70;;;;;;6187416;23;20005;-81
2023/08/12 05:09:45;;;;;;;5.07;2.80;;;18.90;90.70;;;;;;6187985;23;20409;-81
2023/08/12 05:12:11;;;;;;;4.43;2.33;;;18.80;90.70;;;;;;6187508;23;20059;-81
2023/08/12 05:14:38;;;;;;;4.75;2.60;;;18.80;90.70;;;;;;6189614;23;20004;-83
2023/08/12 05:17:05;;;;;;;4.32;2.42;;;18.80;90.70;;;;;;6186946;23;20009;-81
2023/08/12 05:19:30;;;;;;;4.18;2.55;;;18.80;90.70;;;;;;6186579;23;20001;-81
2023/08/12 05:21:56;;;;;;;4.65;2.70;;;18.80;90.70;;;;;;6186577;23;20005;-81
2023/08/12 05:24:21;;;;;;;4.20;2.55;;;18.80;90.70;;;;;;6185286;23;20001;-82
2023/08/12 05:26:47;;;;;;;4.63;2.60;;;18.80;90.70;;;;;;6183042;23;20040;-81
2023/08/12 05:29:12;;;;;;;4.90;2.40;;;18.80;90.70;;;;;;6182696;23;20024;-82
2023/08/12 05:31:38;;;;;;;4.70;2.50;;;18.90;90.70;;;;;;6185933;23;20032;-83
2023/08/12 05:34:04;;;;;;;4.95;2.60;;;18.90;90.70;;;;;;6183875;23;20009;-82
2023/08/12 05:36:30;;;;;;;3.92;2.47;;;18.90;90.60;;;;;;6184240;23;20009;-82
2023/08/12 05:38:55;;;;;;;4.95;2.50;;;18.90;90.60;;;;;;6185681;23;20016;-82
2023/08/12 05:41:21;;;;;;;4.20;2.45;;;18.90;90.50;;;;;;6184345;23;20009;-82
2023/08/12 05:43:48;;;;;;;4.50;2.55;;;19.00;90.50;;;;;;6185071;23;20005;-82
2023/08/12 05:46:13;;;;;;;4.20;2.45;;;19.00;90.50;;;;;;6186302;23;20480;-82
2023/08/12 05:48:39;;;;;;;4.20;2.45;;;19.00;90.50;;;;;;6183808;23;20090;-82
2023/08/12 05:51:04;;;;;;;4.85;2.60;;;19.00;90.50;;;;;;6185179;23;20009;-82
2023/08/12 05:53:30;;;;;;;4.32;2.60;;;19.00;90.50;;;;;;6183590;23;20012;-82
2023/08/12 05:55:55;;;;;;;4.75;2.67;;;19.00;90.50;;;;;;6182731;23;20076;-82
2023/08/12 05:58:21;;;;;;;4.72;2.40;;;19.00;90.40;;;;;;6184115;23;20009;-82
2023/08/12 06:00:46;;;;;;;5.22;2.97;;;19.00;90.50;;;;;;6182663;23;20005;-81
2023/08/12 06:03:12;;;;;;;4.40;2.53;;;19.00;90.50;;;;;;6182419;23;20005;-82
2023/08/12 06:05:40;;;;;;;4.03;2.30;;;19.00;90.60;;;;;;6181867;23;20039;-82
2023/08/12 06:08:05;;;;;;;3.88;2.47;;;19.00;90.60;;;;;;6182344;23;20597;-82
2023/08/12 06:10:31;;;;;;;4.65;2.67;;;19.00;90.60;;;;;;6184171;23;20040;-82
2023/08/12 06:12:56;;;;;;;3.83;2.33;;;18.90;90.60;;;;;;6181654;23;20019;-82
2023/08/12 06:15:22;;;;;;;4.70;2.50;;;19.00;90.60;;;;;;6182016;23;20338;-82
2023/08/12 06:17:47;;;;;;;5.38;2.60;;;18.90;90.60;;;;;;6183899;23;20017;-82
2023/08/12 06:20:13;;;;;;;7.35;2.75;;;18.90;90.60;;;;;;6181495;23;20033;-82
2023/08/12 06:22:38;;;;;;;4.38;2.53;;;18.90;90.60;;;;;;6181733;23;20015;-83
2023/08/12 06:25:04;;;;;;;4.57;2.40;;;18.90;90.70;;;;;;6181597;23;20008;-82
2023/08/12 06:27:30;;;;;;;4.57;2.75;;;18.90;90.70;;;;;;6184049;23;20016;-82
2023/08/12 06:29:55;;;;;;;5.47;2.72;;;18.90;90.70;;;;;;6182360;23;20240;-82
2023/08/12 06:32:21;;;;;;;4.93;2.53;;;18.90;90.70;;;;;;6184298;23;20343;-83
2023/08/12 06:34:46;;;;;;;5.03;2.40;;;18.90;90.70;;;;;;6183803;23;20009;-82
2023/08/12 06:37:12;;;;;;;4.35;2.42;;;18.90;90.70;;;;;;6181903;23;20008;-82
2023/08/12 06:39:37;;;;;;;5.20;2.80;;;18.90;90.70;;;;;;6184169;23;20075;-82
2023/08/12 06:42:03;;;;;;;4.63;2.65;;;18.90;90.70;;;;;;6184552;23;20001;-82
2023/08/12 06:44:29;;;;;;;4.60;2.63;;;18.90;90.70;;;;;;6180514;23;20099;-81
2023/08/12 06:46:54;;;;;;;4.57;2.65;;;18.90;90.70;;;;;;6182297;23;20396;-82
2023/08/12 06:49:19;;;;;;;4.88;2.60;;;19.00;90.70;;;;;;6179711;23;20039;-80
2023/08/12 06:51:45;;;;;;;4.18;2.47;;;18.90;90.60;;;;;;6179112;23;20841;-81
2023/08/12 06:54:11;;;;;;;4.22;2.45;;;18.90;90.60;;;;;;6180010;23;20013;-80
2023/08/12 06:56:36;;;;;;;4.45;2.50;;;19.00;90.60;;;;;;6189012;23;20043;-83
2023/08/12 06:59:02;;;;;;;4.00;2.50;;;19.00;90.60;;;;;;6191176;23;20009;-82
2023/08/12 07:01:27;;;;;;;4.53;2.80;;;18.90;90.60;;;;;;6185481;23;20001;-81
2023/08/12 07:03:53;;;;;;;5.47;3.00;;;18.90;90.60;;;;;;6179151;23;20009;-82
2023/08/12 07:06:18;;;;;;;4.55;2.58;;;19.00;90.60;;;;;;6179170;23;20009;-83
2023/08/12 07:08:44;;;;;;;4.38;2.50;;;19.00;90.60;;;;;;6180491;23;20272;-82
2023/08/12 07:11:09;;;;;;;4.65;2.65;;;19.00;90.50;;;;;;6181141;23;20083;-80
2023/08/12 07:13:35;;;;;;;4.90;3.00;;;19.10;90.50;;;;;;6181942;23;20005;-82
2023/08/12 07:16:00;;;;;;;5.25;2.83;;;19.10;90.40;;;;;;6180737;23;20087;-82
2023/08/12 07:18:26;;;;;;;5.57;2.90;;;19.10;90.30;;;;;;6197987;23;20005;-83
2023/08/12 07:20:52;;;;;;;4.82;2.75;;;19.20;90.30;;;;;;6180533;23;20016;-82
2023/08/12 07:23:17;;;;;;;5.20;2.83;;;19.20;90.30;;;;;;6182427;23;20001;-82
2023/08/12 07:25:43;;;;;;;5.22;2.70;;;19.20;90.20;;;;;;6179289;23;20059;-81
2023/08/12 07:28:08;;;;;;;4.40;2.60;;;19.20;90.20;;;;;;6180633;23;20128;-81
2023/08/12 07:30:36;;;;;;;4.28;2.20;;;19.20;90.20;;;;;;6182191;23;20005;-81
2023/08/12 07:33:01;;;;;;;5.32;2.88;;;19.20;90.20;;;;;;6178978;23;20012;-81
2023/08/12 07:35:27;;;;;;;4.63;2.65;;;19.20;90.20;;;;;;6180291;23;20047;-80
2023/08/12 07:37:52;;;;;;;5.07;2.80;;;19.20;90.20;;;;;;6179818;23;20005;-81
2023/08/12 07:40:18;;;;;;;4.80;2.40;;;19.20;90.20;;;;;;6180445;23;20009;-80
2023/08/12 07:42:43;;;;;;;4.72;2.70;;;19.20;90.30;;;;;;6181313;23;19997;-80
2023/08/12 07:45:09;;;;;;;4.55;2.50;;;19.20;90.30;;;;;;6182656;23;20343;-82
2023/08/12 07:47:34;;;;;;;4.47;2.47;;;19.20;90.30;;;;;;6184786;23;20009;-81
2023/08/12 07:50:00;;;;;;;4.10;2.40;;;19.10;90.30;;;;;;6182940;23;20084;-81
2023/08/12 07:52:25;;;;;;;4.57;2.60;;;19.10;90.40;;;;;;6184237;23;20017;-81
2023/08/12 07:54:51;;;;;;;4.53;2.58;;;19.30;90.50;;;;;;6182075;23;20094;-80
2023/08/12 07:57:16;;;;;;;5.10;2.70;;;19.10;90.50;;;;;;6182575;23;20444;-80
2023/08/12 07:59:42;;;;;;;4.38;2.60;;;19.20;90.50;;;;;;6183574;23;20065;-80
2023/08/12 08:02:08;;;;;;;4.30;2.67;;;19.10;90.50;;;;;;6182947;23;20024;-81
2023/08/12 08:04:34;;;;;;;4.38;2.60;;;19.10;90.60;;;;;;6183941;23;20012;-80
2023/08/12 08:07:00;;;;;;;4.75;2.60;;;19.10;90.60;;;;;;6182072;23;20352;-79
2023/08/12 08:09:25;;;;;;;5.22;2.85;;;19.10;90.60;;;;;;6181935;23;20001;-79
2023/08/12 08:11:51;;;;;;;4.93;2.70;;;19.10;90.60;;;;;;6182991;23;20071;-80
2023/08/12 08:14:16;;;;;;;4.03;2.55;;;19.10;90.60;;;;;;6181666;23;20011;-81
2023/08/12 08:16:42;;;;;;;4.97;2.80;;;19.10;90.60;;;;;;6183798;23;20009;-80
2023/08/12 08:19:09;;;;;;;4.50;2.53;;;19.10;90.60;;;;;;6181824;23;20063;-79
2023/08/12 08:21:35;;;;;;;4.18;2.58;;;19.10;90.60;;;;;;6181788;23;20001;-81
2023/08/12 08:24:00;;;;;;;4.90;2.90;;;19.10;90.60;;;;;;6205655;23;20001;-80
2023/08/12 08:26:26;;;;;;;4.45;2.90;;;19.10;90.70;;;;;;6183308;23;20032;-80
2023/08/12 08:28:52;;;;;;;4.47;2.70;;;19.10;90.70;;;;;;6181910;23;20463;-81
2023/08/12 08:31:17;;;;;;;4.20;2.53;;;19.10;90.70;;;;;;6183129;23;20055;-80
2023/08/12 08:33:43;;;;;;;4.35;2.63;;;19.00;90.70;;;;;;6179208;23;20344;-80
2023/08/12 08:36:09;;;;;;;4.03;2.60;;;19.10;90.70;;;;;;6180636;23;20080;-81
2023/08/12 08:38:34;;;;;;;4.72;2.78;;;19.10;90.70;;;;;;6180175;23;20045;-81
2023/08/12 08:41:01;;;;;;;4.82;2.67;;;19.10;90.80;;;;;;6180475;23;20005;-80
2023/08/12 08:43:28;;;;;;;5.18;2.65;;;19.10;90.70;;;;;;6180801;23;20016;-83
2023/08/12 08:45:54;;;;;;;4.15;2.60;;;19.10;90.70;;;;;;6179922;23;20001;-80
2023/08/12 08:48:20;;;;;;;5.55;3.10;;;19.10;90.70;;;;;;6180734;23;20870;-81
2023/08/12 08:50:48;;;;;;;5.72;2.88;;;19.20;91.00;;;;;;6181965;23;20039;-82
2023/08/12 08:53:15;;;;;;;5.82;3.55;;;19.20;90.80;;;;;;6179650;23;20005;-80
2023/08/12 08:55:41;;;;;;;5.65;3.50;;;19.20;90.90;;;;;;6179819;23;20013;-80
2023/08/12 08:58:07;;;;;;;5.25;3.08;;;19.20;90.90;;;;;;6181882;23;20324;-81
2023/08/12 09:00:32;;;;;;;5.63;3.00;;;19.20;90.90;;;;;;6181532;23;20009;-80
2023/08/12 09:02:58;;;;;;;5.18;2.92;;;19.20;90.90;;;;;;6180402;23;20401;-81
2023/08/12 09:05:25;;;;;;;5.28;2.78;;;19.20;90.80;;;;;;6202653;23;20009;-81
2023/08/12 09:07:51;;;;;;;7.13;3.30;;;19.20;90.80;;;;;;6177371;23;20389;-82
2023/08/12 09:10:20;;;;;;;6.47;4.30;;;19.20;91.40;;;;;;6179301;23;20009;-79
2023/08/12 09:12:46;;;;;;;6.80;4.60;;;19.20;91.80;;;;;;6175922;23;20005;-82
2023/08/12 09:15:12;;;;;;;7.95;4.30;;;19.10;92.30;;;;;;6173731;23;20510;-84
2023/08/12 09:17:38;;;;;;;5.95;3.60;;;19.20;92.00;;;;;;6175441;23;20005;-82
2023/08/12 09:20:11;;;;;;;5.47;3.33;;;19.10;91.80;;;;;;6173934;23;20005;-84
2023/08/12 09:22:37;;;;;;;5.45;3.40;;;19.10;91.60;;;;;;6174101;23;20016;-83
2023/08/12 09:25:04;;;;;;;5.70;3.40;;;19.20;91.60;;;;;;6175701;23;20008;-83
2023/08/12 09:27:31;;;;;;;6.10;2.97;;;19.10;91.40;;;;;;6175383;23;20016;-82
2023/08/12 09:29:59;;;;;;;6.07;3.60;;;19.20;91.40;;;;;;6175537;23;20023;-80
2023/08/12 09:32:25;;;;;;;5.55;3.50;;;19.10;91.60;;;;;;6181254;23;20056;-82
2023/08/12 09:34:55;;;;;;;7.25;4.07;;;19.20;91.40;;;;;;6180759;23;20012;-82
2023/08/12 09:37:23;;;;;;;6.00;3.60;;;19.10;91.70;;;;;;6178249;23;20068;-82
2023/08/12 09:39:49;;;;;;;5.57;3.50;;;19.20;91.50;;;;;;6176668;23;20347;-83
2023/08/12 09:42:16;;;;;;;5.82;3.30;;;19.20;91.40;;;;;;6178925;23;20464;-82
2023/08/12 09:44:42;;;;;;;6.22;3.38;;;19.10;91.30;;;;;;6176061;23;20334;-80
2023/08/12 09:47:08;;;;;;;5.90;3.03;;;19.20;91.40;;;;;;6175987;23;20028;-80
2023/08/12 09:49:37;;;;;;;5.93;3.30;;;19.10;91.30;;;;;;6175335;23;20005;-79
2023/08/12 09:52:06;;;;;;;5.57;3.40;;;19.10;91.30;;;;;;6178179;23;20012;-80
2023/08/12 09:54:32;;;;;;;5.22;3.10;;;19.20;91.20;;;;;;6175476;23;20005;-80
2023/08/12 09:57:00;;;;;;;6.00;3.55;;;19.20;91.20;;;;;;6176598;23;20001;-82
2023/08/12 09:59:30;;;;;;;5.53;3.45;;;19.20;91.20;;;;;;6179845;23;20016;-82
2023/08/12 10:01:57;;;;;;;5.50;3.35;;;19.20;91.20;;;;;;6182423;23;20064;-80
2023/08/12 10:04:25;;;;;;;5.35;3.38;;;19.20;91.40;;;;;;6205261;23;20422;-81
2023/08/12 10:06:51;;;;;;;6.38;3.60;;;19.20;91.70;;;;;;6205981;23;20084;-79
2023/08/12 10:09:18;;;;;;;5.55;3.40;;;19.20;91.80;;;;;;6204340;23;20091;-80
2023/08/12 10:11:45;;;;;;;5.45;3.00;;;19.30;91.60;;;;;;6179943;23;20016;-80
2023/08/12 10:14:12;;;;;;;5.47;3.20;;;19.20;91.30;;;;;;6183016;23;20009;-79
2023/08/12 10:16:38;;;;;;;5.63;3.33;;;19.30;91.50;;;;;;6199031;23;20016;-83
2023/08/12 10:19:05;;;;;;;5.40;3.13;;;19.20;91.30;;;;;;6184586;23;20013;-80
2023/08/12 10:21:31;;;;;;;5.43;3.20;;;19.20;91.30;;;;;;6190913;23;20011;-81
2023/08/12 10:23:58;;;;;;;4.88;3.08;;;19.30;91.30;;;;;;6190133;23;20009;-82
2023/08/12 10:26:27;;;;;;;5.80;3.30;;;19.30;91.20;;;;;;6190613;23;20015;-82
2023/08/12 10:28:54;;;;;;;6.28;3.25;;;19.30;91.20;;;;;;6189259;23;20047;-82
2023/08/12 10:31:20;;;;;;;5.72;3.20;;;19.40;91.20;;;;;;6187882;23;20009;-80
2023/08/12 10:33:49;;;;;;;5.18;3.05;;;19.30;91.10;;;;;;6185308;23;20015;-81
2023/08/12 10:36:15;;;;;;;4.75;2.78;;;19.30;91.20;;;;;;6186347;23;20024;-81
2023/08/12 10:38:41;;;;;;;5.47;3.10;;;19.30;91.10;;;;;;6189029;23;20012;-79
2023/08/12 10:41:24;;;;;;;5.53;3.22;;;19.30;91.10;;;;;;6188647;23;20144;-80
2023/08/12 10:44:01;;;;;;;5.63;3.42;;;19.30;91.10;;;;;;6188604;23;20001;-80
2023/08/12 10:46:36;;;;;;;5.15;2.90;;;19.30;91.30;;;;;;6211992;23;20005;-79
2023/08/12 10:49:10;;;;;;;5.32;3.08;;;19.30;91.10;;;;;;6186921;23;20012;-78
2023/08/12 10:51:50;;;;;;;5.70;3.00;;;19.30;91.10;;;;;;6186477;23;20009;-80
2023/08/12 10:54:30;;;;;;;4.28;2.80;;;19.30;91.20;;;;;;6185809;23;20472;-79
2023/08/12 10:57:02;;;;;;;5.03;2.95;;;19.20;91.20;;;;;;6186103;23;20024;-79
2023/08/12 10:59:46;;;;;;;4.90;2.95;;;19.20;91.20;;;;;;6187474;23;20017;-80
2023/08/12 11:02:26;;;;;;;5.97;3.20;;;19.20;91.30;;;;;;6185402;23;20001;-79
2023/08/12 11:05:06;;;;;;;4.72;3.00;;;19.20;91.40;;;;;;6184931;23;20028;-79
2023/08/12 11:07:32;;;;;;;;;;;19.20;91.50;;;;;;6183418;23;20076;-79
2023/08/12 11:10:11;;;;;;;4.88;2.75;;;19.20;91.50;;;;;;6181700;23;19916;-78
2023/08/12 11:12:36;;;;;;;5.80;3.08;;;19.20;91.50;;;;;;6182220;23;20436;-78
2023/08/12 11:15:04;;;;;;;5.40;3.17;;;19.20;91.70;;;;;;6183295;23;20016;-80
2023/08/12 11:17:33;;;;;;;4.75;2.70;;;19.20;91.90;;;;;;6182721;23;20040;-80
2023/08/12 11:20:00;;;;;;;4.93;2.90;;;19.20;91.90;;;;;;6181558;23;20055;-81
2023/08/12 11:22:25;;;;;;;5.93;3.00;;;19.20;91.60;;;;;;6180987;23;20440;-80
2023/08/12 11:24:51;;;;;;;4.25;2.55;;;19.20;91.80;;;;;;6180258;23;20012;-79
2023/08/12 11:27:18;;;;;;;4.25;2.72;;;19.20;91.70;;;;;;6182795;23;20480;-80
2023/08/12 11:29:43;;;;;;;4.13;2.45;;;19.20;91.80;;;;;;6182430;23;20088;-81
2023/08/12 11:32:09;;;;;;;4.65;2.72;;;19.20;92.00;;;;;;6182836;23;20088;-80
2023/08/12 11:34:36;;;;;;;4.53;2.70;;;19.20;92.00;;;;;;6181954;23;20001;-81
2023/08/12 11:37:03;;;;;;;4.65;2.80;;;19.20;92.00;;;;;;6180746;23;20428;-80
2023/08/12 11:39:29;;;;;;;4.60;2.65;;;19.20;91.80;;;;;;6180264;23;20016;-80
2023/08/12 11:41:55;;;;;;;4.57;2.70;;;19.20;91.70;;;;;;6180273;23;20027;-80
2023/08/12 11:44:22;;;;;;;4.45;2.70;;;19.20;91.80;;;;;;6179986;23;19997;-81
2023/08/12 11:46:48;;;;;;;4.50;2.70;;;19.20;91.80;;;;;;6180074;23;20016;-80
2023/08/12 11:49:13;;;;;;;5.32;2.60;;;19.20;91.80;;;;;;6180135;23;20044;-80
2023/08/12 11:51:39;;;;;;;5.25;2.72;;;19.20;92.10;;;;;;6180028;23;20039;-80
2023/08/12 11:54:05;;;;;;;4.93;2.42;;;19.20;91.70;;;;;;6204676;23;20012;-80
2023/08/12 11:56:31;;;;;;;5.35;2.75;;;19.30;91.50;;;;;;6179941;23;20009;-80
2023/08/12 11:58:57;;;;;;;4.32;2.65;;;19.30;91.50;;;;;;6180098;23;20012;-80
2023/08/12 12:01:25;;;;;;;4.22;2.67;;;19.40;91.30;;;;;;6180085;23;20008;-80
2023/08/12 12:03:52;;;;;;;3.65;2.40;;;19.40;91.20;;;;;;6179963;23;20005;-80
2023/08/12 12:06:17;;;;;;;3.63;2.30;;;19.40;91.20;;;;;;6178905;23;20001;-79
2023/08/12 12:08:46;;;;;;;4.10;2.58;;;19.40;91.10;;;;;;6180420;23;20009;-80
2023/08/12 12:11:13;;;;;;;4.50;2.80;;;19.50;91.40;;;;;;6181469;23;20423;-80
2023/08/12 12:13:39;;;;;;;6.70;2.63;;;19.50;93.80;;;;;;6181282;23;20012;-79
2023/08/12 12:16:10;;;;;;;5.07;2.85;;;19.60;92.10;;;;;;6184057;23;20009;-79
2023/08/12 12:18:36;;;;;;;3.90;2.30;;;19.60;93.00;;;;;;6183943;23;20544;-78
2023/08/12 12:21:01;;;;;;;5.68;2.85;;;19.70;92.50;;;;;;6185512;23;19997;-80
2023/08/12 12:23:31;;;;;;;6.38;2.63;;;19.70;94.60;;;;;;6182101;23;19997;-80
2023/08/12 12:26:01;;;;;;;5.32;2.80;;;19.70;94.90;;;;;;6182424;23;20001;-81
2023/08/12 12:28:27;;;;;;;5.43;2.60;;;19.70;96.20;;;;;;6181571;23;20435;-80
2023/08/12 12:30:53;;;;;;;5.93;2.67;;;19.70;96.50;;;;;;6184954;23;20228;-80
2023/08/12 12:33:18;;;;;;;7.20;2.70;;;19.60;96.10;;;;;;6183297;23;20016;-80
2023/08/12 12:35:44;;;;;;;5.05;2.58;;;19.60;95.60;;;;;;6189356;23;20012;-82
2023/08/12 12:38:09;;;;;;;6.60;2.80;;;19.50;96.00;;;;;;6187693;23;20005;-82
2023/08/12 12:40:35;;;;;;;5.97;3.00;;;19.50;96.80;;;;;;6187450;23;20068;-80
2023/08/12 12:43:00;;;;;;;8.43;3.28;;;19.50;97.00;;;;;;6190695;23;20320;-83